Time;durP1;ratioP1;P1;durP2;ratioP2;P2;SDS_P1;SDS_P2;PMS_P1;PMS_P2;Temp;Humidity;BMP_temperature;BMP_pressure;BME280_temperature;BME280_humidity;BME280_pressure;Samples;Min_cycle;Max_cycle;Signal;HPM_P1;HPM_P2
2021/08/27 00:00:17;;;;;;;2.25;2.00;;;14.10;84.10;;;13.55;69.99;94458.72;5041043;28;20238;-79
2021/08/27 00:02:44;;;;;;;3.33;2.20;;;14.00;84.00;;;13.46;69.95;94447.69;5041928;28;20188;-79
2021/08/27 00:05:12;;;;;;;2.20;2.00;;;14.00;84.10;;;13.47;70.14;94454.56;5038838;28;20223;-79
2021/08/27 00:07:39;;;;;;;4.35;2.10;;;13.90;84.10;;;13.45;70.13;94456.63;5032301;28;20661;-79
2021/08/27 00:10:07;;;;;;;2.40;2.20;;;13.90;84.10;;;13.43;70.26;94459.47;5011559;28;20594;-79
2021/08/27 00:12:35;;;;;;;3.03;2.30;;;13.90;84.20;;;13.41;70.20;94452.81;5014161;28;20619;-79
2021/08/27 00:15:06;;;;;;;2.80;2.00;;;13.90;84.20;;;13.38;70.11;94448.00;5042002;28;20215;-79
2021/08/27 00:17:34;;;;;;;2.83;1.88;;;13.80;84.20;;;13.35;70.18;94446.56;5044252;28;20191;-79
2021/08/27 00:20:01;;;;;;;2.13;1.92;;;13.90;84.30;;;13.36;70.33;94463.97;5042135;28;20215;-79
2021/08/27 00:22:28;;;;;;;2.53;1.95;;;13.80;84.30;;;13.36;70.22;94458.72;5026645;28;20493;-79
2021/08/27 00:24:56;;;;;;;2.17;1.95;;;13.80;84.30;;;13.35;69.87;94462.38;5044516;28;20218;-79
2021/08/27 00:27:23;;;;;;;2.05;1.95;;;13.80;84.40;;;13.34;70.43;94452.06;5026615;28;20306;-79
2021/08/27 00:29:51;;;;;;;2.40;2.20;;;13.80;84.40;;;13.33;70.31;94447.81;5024488;28;21007;-79
2021/08/27 00:32:18;;;;;;;2.13;1.92;;;13.70;84.40;;;13.33;70.60;94451.28;5030103;28;20666;-79
2021/08/27 00:34:45;;;;;;;3.60;2.10;;;13.70;84.50;;;13.28;70.35;94446.66;5031499;28;20200;-79
2021/08/27 00:37:14;;;;;;;4.70;2.38;;;13.80;84.50;;;13.30;70.29;94451.69;5031542;28;20193;-79
2021/08/27 00:39:42;;;;;;;2.78;2.17;;;13.80;84.50;;;13.31;70.42;94444.63;5041480;28;20249;-79
2021/08/27 00:42:09;;;;;;;3.40;2.30;;;13.70;84.50;;;13.23;70.32;94433.34;5043219;28;20269;-79
2021/08/27 00:44:37;;;;;;;3.03;2.47;;;13.70;84.50;;;13.30;70.42;94438.53;5017661;28;20198;-79
2021/08/27 00:47:04;;;;;;;3.90;2.58;;;13.70;84.50;;;13.29;70.51;94450.09;5040600;28;20242;-80
2021/08/27 00:49:32;;;;;;;3.38;2.40;;;13.70;84.50;;;13.23;70.46;94438.63;5029480;28;20192;-79
2021/08/27 00:52:00;;;;;;;2.50;2.30;;;13.70;84.60;;;13.27;70.59;94445.03;5017677;28;20648;-79
2021/08/27 00:54:28;;;;;;;3.30;2.25;;;13.70;84.60;;;13.30;70.51;94451.69;5015576;28;20191;-79
2021/08/27 00:56:55;;;;;;;4.47;2.42;;;13.70;84.60;;;13.27;70.20;94452.16;5026937;28;20295;-79
2021/08/27 00:59:22;;;;;;;3.38;2.58;;;13.70;84.60;;;13.26;70.21;94456.59;5048274;28;20204;-79
2021/08/27 01:01:50;;;;;;;4.85;2.60;;;13.70;84.60;;;13.26;70.48;94450.53;5031046;28;20269;-79
2021/08/27 01:04:17;;;;;;;2.40;2.10;;;13.70;84.70;;;13.23;70.45;94448.31;5031306;28;20253;-80
2021/08/27 01:06:54;;;;;;;2.33;2.13;;;13.70;84.70;;;13.24;70.58;94452.56;5024911;28;20318;-79
2021/08/27 01:09:39;;;;;;;3.47;2.63;;;13.70;84.80;;;13.25;70.55;94454.19;5033674;28;20585;-80
2021/08/27 01:12:26;;;;;;;4.07;2.80;;;13.60;84.80;;;13.22;70.40;94446.72;5031028;28;20733;-80
2021/08/27 01:15:13;;;;;;;2.45;2.25;;;13.60;84.70;;;13.19;70.40;94453.22;5026578;28;20246;-78
2021/08/27 01:17:59;;;;;;;3.38;2.15;;;13.70;84.70;;;13.18;70.38;94459.50;5042205;28;20216;-79
2021/08/27 01:20:58;;;;;;;3.67;2.33;;;13.60;84.80;;;13.15;70.61;94451.28;5024620;28;20204;-79
2021/08/27 01:23:43;;;;;;;3.08;2.20;;;13.60;84.80;;;13.09;70.52;94455.56;5044255;28;20629;-79
2021/08/27 01:26:17;;;;;;;2.53;2.10;;;13.60;84.60;;;13.09;70.65;94460.84;5044673;28;20310;-79
2021/08/27 01:28:49;;;;;;;2.72;2.30;;;13.60;84.50;;;13.04;70.71;94453.59;5009103;28;20694;-79
2021/08/27 01:31:49;;;;;;;2.40;1.98;;;13.60;84.60;;;13.01;70.39;94458.50;5025514;28;20215;-79
2021/08/27 01:34:40;;;;;;;2.92;2.00;;;13.50;84.50;;;12.99;70.49;94450.81;5026847;28;20719;-79
2021/08/27 01:37:15;;;;;;;3.08;2.00;;;13.50;84.60;;;12.97;70.92;94458.13;5026313;28;20188;-79
2021/08/27 01:39:53;;;;;;;2.50;2.30;;;13.50;84.50;;;12.97;70.80;94468.66;5008750;28;20195;-79
2021/08/27 01:42:24;;;;;;;2.28;2.08;;;13.50;84.60;;;12.97;70.86;94461.56;5012480;28;20669;-79
2021/08/27 01:44:55;;;;;;;2.28;2.08;;;13.50;84.70;;;12.97;70.91;94463.38;5034101;28;20235;-79
2021/08/27 01:47:28;;;;;;;2.83;2.17;;;13.40;84.60;;;12.97;70.72;94460.75;5031320;28;20218;-79
2021/08/27 01:49:56;;;;;;;2.45;2.03;;;13.40;84.70;;;12.95;70.92;94457.53;5045036;28;20233;-80
2021/08/27 01:52:24;;;;;;;2.28;1.70;;;13.40;84.70;;;12.98;70.81;94462.38;5034589;28;20680;-81
2021/08/27 01:54:52;;;;;;;2.65;2.00;;;13.40;84.80;;;12.90;70.79;94444.22;5034712;28;20264;-80
2021/08/27 01:57:20;;;;;;;1.88;1.75;;;13.40;84.90;;;13.00;70.72;94457.69;5034561;28;20200;-80
2021/08/27 01:59:47;;;;;;;2.30;1.92;;;13.40;84.90;;;13.00;70.79;94457.69;5030119;28;20204;-80
2021/08/27 02:02:17;;;;;;;3.67;2.30;;;13.40;84.90;;;12.98;70.82;94455.25;4998511;28;20193;-80
2021/08/27 02:04:50;;;;;;;3.15;2.05;;;13.40;84.90;;;12.97;71.07;94458.94;5014660;28;20677;-80
2021/08/27 02:07:18;;;;;;;3.17;2.30;;;13.40;84.80;;;12.94;70.80;94455.94;5030963;28;20244;-80
2021/08/27 02:09:48;;;;;;;2.42;2.00;;;13.40;84.70;;;12.93;70.79;94460.38;5030718;28;20208;-80
2021/08/27 02:12:16;;;;;;;3.10;2.05;;;13.40;84.70;;;12.92;70.88;94455.34;5042685;28;20185;-81
2021/08/27 02:14:43;;;;;;;2.17;1.90;;;13.30;84.60;;;12.82;70.73;94443.47;5018865;28;20618;-80
2021/08/27 02:17:10;;;;;;;2.45;2.05;;;13.30;84.70;;;12.89;70.73;94459.22;5047548;28;20291;-80
2021/08/27 02:19:38;;;;;;;3.38;2.10;;;13.30;84.70;;;12.85;70.87;94449.34;5031174;28;20200;-79
2021/08/27 02:22:11;;;;;;;1.90;1.70;;;13.40;84.70;;;12.82;70.81;94447.94;5030971;28;20299;-81
2021/08/27 02:24:54;;;;;;;3.65;2.50;;;13.30;84.60;;;12.82;70.75;94467.16;5030870;28;20220;-79
2021/08/27 02:27:23;;;;;;;2.95;2.00;;;13.30;84.60;;;12.78;70.84;94458.09;5030856;28;20254;-80
2021/08/27 02:29:55;;;;;;;3.75;2.00;;;13.20;84.60;;;12.80;71.14;94450.81;5019269;28;20218;-80
2021/08/27 02:32:25;;;;;;;2.50;2.05;;;13.30;84.80;;;12.82;70.64;94461.91;5038279;28;20235;-80
2021/08/27 02:34:58;;;;;;;3.22;2.15;;;13.30;84.70;;;12.71;71.02;94433.66;5038213;28;20277;-80
2021/08/27 02:37:27;;;;;;;2.08;1.73;;;13.20;84.70;;;12.75;70.80;94450.63;5054769;28;20279;-80
2021/08/27 02:39:54;;;;;;;2.45;2.05;;;13.20;84.70;;;12.77;71.05;94455.69;5033859;28;20677;-80
2021/08/27 02:42:21;;;;;;;2.90;2.03;;;13.20;84.70;;;12.75;71.06;94452.47;5002048;28;20291;-80
2021/08/27 02:44:50;;;;;;;2.72;2.20;;;13.20;84.70;;;12.70;70.91;94453.09;5018134;28;20631;-80
2021/08/27 02:47:17;;;;;;;2.33;2.13;;;13.30;84.60;;;12.71;70.92;94459.19;5002118;28;20239;-80
2021/08/27 02:49:44;;;;;;;3.20;2.20;;;13.20;84.60;;;12.67;71.13;94450.91;5033877;28;20562;-79
2021/08/27 02:52:31;;;;;;;3.22;1.88;;;13.20;84.60;;;12.64;70.71;94456.59;5034458;28;20291;-80
2021/08/27 02:55:08;;;;;;;3.72;2.00;;;13.20;84.60;;;12.62;70.88;94454.19;5034711;28;20258;-80
2021/08/27 02:58:08;;;;;;;2.38;1.88;;;13.10;84.70;;;12.57;71.07;94458.47;5036128;28;20184;-80
2021/08/27 03:00:50;;;;;;;2.15;1.83;;;13.10;84.70;;;12.60;71.17;94453.59;5050890;28;20239;-80
2021/08/27 03:03:24;;;;;;;2.05;1.85;;;13.20;84.70;;;12.57;71.28;94445.31;5022939;28;20196;-80
2021/08/27 03:05:57;;;;;;;3.13;2.00;;;13.10;84.70;;;12.59;71.03;94449.34;5054077;28;20307;-80
2021/08/27 03:08:24;;;;;;;5.35;2.20;;;13.10;84.80;;;12.59;71.31;94454.59;5037779;28;20657;-80
2021/08/27 03:11:07;;;;;;;2.08;1.83;;;13.10;84.80;;;12.58;70.98;94444.31;5037039;28;20269;-79
2021/08/27 03:14:03;;;;;;;2.17;1.85;;;13.20;84.90;;;12.56;71.03;94449.78;5053913;28;20244;-80
2021/08/27 03:16:31;;;;;;;1.88;1.65;;;13.10;85.00;;;12.60;71.20;94450.16;5051370;28;20306;-80
2021/08/27 03:19:07;;;;;;;2.58;2.13;;;13.10;84.90;;;12.61;71.02;94447.31;5037159;28;20219;-80
2021/08/27 03:22:27;;;;;;;2.90;2.08;;;13.10;85.00;;;12.59;71.04;94445.94;5036570;28;20298;-79
2021/08/27 03:25:03;;;;;;;3.28;2.15;;;13.00;84.90;;;12.54;71.23;94432.63;5026527;28;20250;-79
2021/08/27 03:27:39;;;;;;;2.42;2.00;;;13.10;85.00;;;12.60;71.07;94444.91;5039015;28;20207;-80
2021/08/27 03:30:14;;;;;;;2.47;2.03;;;13.10;84.90;;;12.55;71.14;94437.66;5041870;28;20211;-79
2021/08/27 03:32:58;;;;;;;2.30;1.90;;;13.00;84.90;;;12.60;71.12;94442.28;5027514;28;20180;-80
2021/08/27 03:35:27;;;;;;;2.00;1.80;;;13.00;85.00;;;12.61;71.28;94447.31;5010627;28;20220;-80
2021/08/27 03:37:57;;;;;;;3.85;1.95;;;13.00;85.00;;;12.61;71.17;94442.06;5010012;28;20262;-79
2021/08/27 03:40:27;;;;;;;2.05;1.90;;;13.10;85.00;;;12.66;71.05;94446.69;5033213;28;20336;-80
2021/08/27 03:42:57;;;;;;;2.45;1.90;;;13.00;85.00;;;12.70;70.81;94454.94;5026126;28;20275;-80
2021/08/27 03:45:26;;;;;;;2.13;1.70;;;13.10;85.10;;;12.72;70.80;94443.19;5027896;28;20282;-79
2021/08/27 03:47:54;;;;;;;3.42;2.05;;;13.00;85.00;;;12.73;71.22;94447.41;5043048;28;20212;-78
2021/08/27 03:50:23;;;;;;;5.18;1.95;;;13.10;85.10;;;12.70;71.15;94439.94;5032842;28;20212;-79
2021/08/27 03:52:52;;;;;;;1.75;1.65;;;13.10;85.00;;;12.76;71.06;94451.44;5032945;28;20291;-78
2021/08/27 03:55:21;;;;;;;3.85;1.90;;;13.10;85.00;;;12.72;71.04;94439.72;5043943;28;20212;-79
2021/08/27 03:57:50;;;;;;;2.90;2.17;;;13.20;85.10;;;12.78;71.00;94447.56;5018581;28;20653;-79
2021/08/27 04:00:35;;;;;;;2.33;2.08;;;13.10;85.00;;;12.79;71.32;94446.56;5033304;28;20696;-80
2021/08/27 04:03:03;;;;;;;2.13;1.92;;;13.10;85.00;;;12.80;70.94;94439.44;5021850;28;20200;-79
2021/08/27 04:05:31;;;;;;;2.28;1.75;;;13.20;85.10;;;12.81;71.12;94452.38;5034824;28;20223;-79
2021/08/27 04:07:58;;;;;;;2.40;2.00;;;13.20;85.10;;;12.74;71.06;94442.94;5018270;28;20211;-80
2021/08/27 04:10:26;;;;;;;2.22;2.00;;;13.20;85.10;;;12.75;71.15;94447.19;5051477;28;20215;-79
2021/08/27 04:12:53;;;;;;;3.17;2.00;;;13.20;85.10;;;12.72;70.92;94437.09;5051098;28;20554;-79
2021/08/27 04:15:23;;;;;;;1.85;1.60;;;13.20;85.10;;;12.72;70.84;94439.72;5051001;28;20660;-81
2021/08/27 04:17:50;;;;;;;3.75;2.35;;;13.20;85.10;;;12.76;70.91;94454.88;5017856;28;20649;-81
2021/08/27 04:20:17;;;;;;;4.13;3.00;;;13.20;84.90;;;12.77;70.74;94463.59;5014847;28;20655;-80
2021/08/27 04:22:45;;;;;;;3.42;2.20;;;13.20;84.70;;;12.62;70.58;94442.84;5016410;28;20677;-79
2021/08/27 04:25:12;;;;;;;3.42;2.55;;;13.20;84.50;;;12.64;70.59;94456.59;5016534;28;20701;-79
2021/08/27 04:27:39;;;;;;;13.00;7.88;;;13.10;84.30;;;12.65;70.62;94461.63;5032906;28;20216;-80
2021/08/27 04:30:07;;;;;;;5.53;4.45;;;13.20;84.50;;;12.63;70.78;94462.88;5047907;28;20228;-80
2021/08/27 04:32:34;;;;;;;2.97;2.30;;;13.10;84.50;;;12.60;70.71;94458.84;5036000;28;20195;-80
2021/08/27 04:35:04;;;;;;;2.00;1.77;;;13.10;84.60;;;12.60;71.12;94465.94;5052465;28;20265;-80
2021/08/27 04:37:31;;;;;;;1.95;1.80;;;13.10;84.70;;;12.57;70.98;94461.09;5047222;28;20299;-80
2021/08/27 04:39:59;;;;;;;2.22;1.88;;;13.10;84.70;;;12.58;70.77;94462.72;5032265;28;20270;-80
2021/08/27 04:42:26;;;;;;;2.75;1.70;;;13.10;84.80;;;12.58;71.10;94468.00;5050945;28;20200;-80
2021/08/27 04:44:54;;;;;;;2.25;1.70;;;13.00;84.80;;;12.65;71.35;94472.16;5024398;28;20220;-79
2021/08/27 04:47:22;;;;;;;3.13;1.80;;;13.00;85.00;;;12.67;71.05;94474.59;5015805;28;20220;-80
2021/08/27 04:49:49;;;;;;;1.85;1.75;;;13.10;85.00;;;12.71;71.12;94474.97;5035558;28;20661;-80
2021/08/27 04:52:16;;;;;;;1.80;1.70;;;13.10;85.00;;;12.66;70.71;94459.84;5015113;28;20192;-80
2021/08/27 04:54:43;;;;;;;1.92;1.40;;;13.20;85.20;;;12.73;70.99;94463.22;5016268;28;20275;-80
2021/08/27 04:57:10;;;;;;;2.75;1.80;;;13.10;85.10;;;12.83;70.85;94475.88;5028233;28;20191;-80
2021/08/27 04:59:42;;;;;;;1.88;1.73;;;13.10;85.10;;;12.86;71.05;94477.28;5015602;28;20290;-80
2021/08/27 05:02:10;;;;;;;2.60;1.55;;;13.20;85.20;;;12.89;70.63;94468.91;5016516;28;20246;-79
2021/08/27 05:04:38;;;;;;;2.72;1.80;;;13.30;85.20;;;12.93;71.12;94470.13;5019387;28;20218;-79
2021/08/27 05:07:05;;;;;;;1.88;1.60;;;13.30;85.20;;;12.95;70.73;94473.31;5019066;28;20720;-79
2021/08/27 05:09:32;;;;;;;1.63;1.50;;;13.20;85.10;;;12.96;70.93;94470.50;5023371;28;20191;-79
2021/08/27 05:11:59;;;;;;;1.98;1.63;;;13.30;85.20;;;13.00;70.81;94480.56;5015649;28;20350;-80
2021/08/27 05:14:26;;;;;;;1.95;1.50;;;13.40;85.20;;;13.02;70.96;94481.16;5022141;28;20239;-79
2021/08/27 05:16:53;;;;;;;2.17;1.73;;;13.30;85.10;;;13.02;71.03;94481.97;5032190;28;20678;-80
2021/08/27 05:19:22;;;;;;;1.33;1.23;;;13.40;85.20;;;13.08;70.74;94481.09;5017843;28;20634;-80
2021/08/27 05:21:51;;;;;;;1.73;1.40;;;13.50;85.30;;;13.12;70.83;94479.66;5015611;28;20690;-80
2021/08/27 05:24:18;;;;;;;2.42;1.63;;;13.40;85.20;;;13.17;70.90;94475.53;5031698;28;20196;-81
2021/08/27 05:26:45;;;;;;;3.08;1.88;;;13.40;85.30;;;13.10;70.94;94463.25;5031439;28;20596;-81
2021/08/27 05:29:12;;;;;;;1.42;1.33;;;13.50;85.30;;;13.22;70.94;94476.50;5015425;28;20192;-80
2021/08/27 05:31:39;;;;;;;1.63;1.52;;;13.50;85.30;;;13.22;71.30;94476.50;5015534;28;20212;-80
2021/08/27 05:34:07;;;;;;;1.50;1.40;;;13.60;85.30;;;13.24;70.82;94479.72;4998755;28;20234;-79
2021/08/27 05:36:34;;;;;;;1.95;1.60;;;13.60;85.20;;;13.29;71.09;94479.06;5031476;28;20305;-79
2021/08/27 05:39:02;;;;;;;2.50;1.48;;;13.60;86.20;;;13.32;70.90;94477.81;5015003;28;20299;-81
2021/08/27 05:41:29;;;;;;;2.53;1.50;;;13.60;85.40;;;13.36;71.11;94479.78;5014926;28;20272;-79
2021/08/27 05:43:56;;;;;;;1.90;1.70;;;13.60;85.40;;;13.37;71.00;94470.88;5015087;28;20210;-80
2021/08/27 05:46:24;;;;;;;2.08;1.50;;;13.70;85.50;;;13.47;70.98;94485.41;5015217;28;20278;-79
2021/08/27 05:48:51;;;;;;;1.50;1.40;;;13.80;85.40;;;13.47;70.93;94480.91;5016899;28;20227;-80
2021/08/27 05:51:18;;;;;;;2.72;1.52;;;13.90;85.50;;;13.54;70.79;94486.91;5017256;28;20322;-80
2021/08/27 05:53:45;;;;;;;1.65;1.45;;;13.80;85.40;;;13.56;71.33;94478.78;5032518;28;20191;-80
2021/08/27 05:56:14;;;;;;;1.92;1.60;;;13.90;85.60;;;13.57;71.18;94480.41;5032008;28;20759;-79
2021/08/27 05:58:41;;;;;;;1.85;1.60;;;13.90;85.50;;;13.65;71.12;94477.47;5049862;28;20199;-79
2021/08/27 06:01:08;;;;;;;1.92;1.73;;;14.00;85.50;;;13.76;71.15;94489.09;5016774;28;20216;-78
2021/08/27 06:05:03;;;;;;;1.63;1.48;;;14.00;85.30;;;13.86;71.48;94480.66;5108547;27;20532;-78
2021/08/27 06:07:31;;;;;;;1.58;1.48;;;14.00;86.50;;;14.02;71.54;94481.88;5086407;28;20230;-79
2021/08/27 06:09:58;;;;;;;4.38;1.58;;;14.10;86.80;;;14.20;71.46;94483.66;5069600;28;20234;-78
2021/08/27 06:12:25;;;;;;;1.95;1.70;;;14.20;87.10;;;14.31;71.28;94476.81;5070115;28;20237;-78
2021/08/27 06:14:54;;;;;;;1.52;1.42;;;14.30;87.10;;;14.41;71.31;94472.59;5071021;28;20435;-79
2021/08/27 06:17:23;;;;;;;2.25;1.52;;;14.40;87.10;;;14.52;71.33;94478.09;5087912;28;20237;-79
2021/08/27 06:19:50;;;;;;;214.57;18.55;;;14.50;86.90;;;14.68;71.43;94482.75;5088580;28;20198;-79
2021/08/27 06:22:18;;;;;;;12.40;3.65;;;14.70;86.90;;;14.72;70.92;94470.69;5055932;28;20301;-79
2021/08/27 06:24:45;;;;;;;4.47;2.20;;;14.70;86.90;;;14.90;70.58;94487.47;5087488;28;20241;-80
2021/08/27 06:27:14;;;;;;;1.65;1.50;;;14.90;86.70;;;14.94;70.13;94485.16;5088150;28;20194;-78
2021/08/27 06:29:41;;;;;;;2.13;1.70;;;15.00;86.20;;;14.97;70.42;94482.88;5070565;28;20206;-78
2021/08/27 06:32:09;;;;;;;1.85;1.65;;;15.00;86.00;;;14.98;70.12;94481.06;5088297;28;20243;-78
2021/08/27 06:34:37;;;;;;;3.15;1.70;;;15.10;85.70;;;14.86;69.72;94481.84;5087847;28;20202;-78
2021/08/27 06:37:04;;;;;;;6.07;2.05;;;15.20;86.10;;;14.87;69.61;94491.38;5086339;28;20263;-79
2021/08/27 06:39:31;;;;;;;2.75;2.20;;;15.20;85.00;;;14.82;69.78;94483.34;5088057;28;20205;-78
2021/08/27 06:41:59;;;;;;;3.05;2.20;;;15.20;85.00;;;14.77;69.88;94488.50;5088066;28;20217;-78
2021/08/27 06:44:27;;;;;;;3.13;2.33;;;15.10;84.80;;;14.75;70.22;94484.50;5088095;28;20763;-80
2021/08/27 06:46:54;;;;;;;2.42;2.20;;;15.20;85.00;;;14.83;70.15;94502.59;5086544;28;20279;-79
2021/08/27 06:49:21;;;;;;;2.47;2.10;;;15.20;85.10;;;14.86;70.11;94502.16;5070728;28;20598;-78
2021/08/27 06:51:49;;;;;;;2.00;1.80;;;15.20;85.10;;;14.83;70.26;94486.75;5052615;28;20240;-79
2021/08/27 06:54:16;;;;;;;1.85;1.67;;;15.20;85.30;;;15.06;70.49;94499.19;5087223;28;20613;-80
2021/08/27 06:56:43;;;;;;;6.32;4.93;;;15.20;85.60;;;15.18;70.71;94492.06;5087226;28;20243;-78
2021/08/27 06:59:12;;;;;;;2.50;2.20;;;15.30;86.00;;;15.33;70.23;94509.28;5070563;28;20186;-79
2021/08/27 07:01:39;;;;;;;2.92;2.00;;;15.30;86.00;;;15.47;70.35;94508.00;5069205;28;20704;-80
2021/08/27 07:04:07;;;;;;;2.10;1.90;;;15.40;86.20;;;15.53;70.08;94501.78;5085841;28;20218;-79
2021/08/27 07:06:34;;;;;;;2.20;2.00;;;15.50;86.20;;;15.67;70.03;94506.81;5064845;28;20218;-78
2021/08/27 07:09:01;;;;;;;2.60;2.30;;;15.60;86.20;;;15.80;70.20;94509.19;5068100;28;20202;-78
2021/08/27 07:11:28;;;;;;;1.90;1.80;;;15.70;86.20;;;15.87;69.44;94513.56;5069934;28;20500;-78
2021/08/27 07:13:55;;;;;;;3.30;2.20;;;15.80;85.90;;;15.94;69.76;94516.88;5069947;28;20227;-79
2021/08/27 07:16:22;;;;;;;1.90;1.80;;;15.90;85.70;;;15.90;69.16;94511.25;5073951;28;20238;-78
2021/08/27 07:18:53;;;;;;;1.90;1.80;;;16.00;85.10;;;15.96;69.15;94522.75;5057576;28;20202;-78
2021/08/27 07:21:20;;;;;;;2.35;1.60;;;16.00;84.90;;;15.90;69.26;94515.75;5057686;28;20302;-78
2021/08/27 07:23:47;;;;;;;3.03;2.47;;;16.10;85.00;;;15.93;69.17;94515.28;5073281;28;20685;-78
2021/08/27 07:26:14;;;;;;;3.72;2.30;;;16.10;84.70;;;15.97;69.01;94534.94;5039292;28;20260;-78
2021/08/27 07:28:41;;;;;;;1.90;1.80;;;16.10;84.70;;;15.97;68.66;94529.66;5040142;28;20198;-80
2021/08/27 07:31:08;;;;;;;2.42;2.20;;;16.10;84.60;;;15.94;68.87;94544.16;5040493;28;20318;-79
2021/08/27 07:33:36;;;;;;;2.67;2.35;;;16.10;84.30;;;15.80;68.54;94527.69;5055891;28;20215;-78
2021/08/27 07:36:04;;;;;;;1.98;1.60;;;16.20;84.00;;;15.89;68.65;94540.59;5056734;28;20309;-78
2021/08/27 07:38:31;;;;;;;1.65;1.55;;;16.10;84.00;;;15.91;69.02;94544.59;5072856;28;20205;-78
2021/08/27 07:40:58;;;;;;;1.55;1.45;;;16.10;84.30;;;15.93;68.67;94541.72;5056294;28;20219;-78
2021/08/27 07:43:25;;;;;;;1.92;1.80;;;16.20;84.20;;;15.92;68.99;94540.94;5072653;28;20223;-78
2021/08/27 07:45:57;;;;;;;1.92;1.83;;;16.10;84.30;;;16.02;68.62;94558.06;5072566;28;20265;-78
2021/08/27 07:48:26;;;;;;;1.88;1.70;;;16.20;84.40;;;16.09;69.04;94553.44;5054499;28;20190;-78
2021/08/27 07:50:55;;;;;;;1.73;1.63;;;16.30;84.50;;;16.10;68.97;94549.72;5055626;28;20696;-78
2021/08/27 07:53:23;;;;;;;2.08;1.85;;;16.30;84.60;;;16.12;68.63;94555.59;5055818;28;20281;-78
2021/08/27 07:55:50;;;;;;;2.10;1.65;;;16.30;84.30;;;16.15;69.05;94568.38;5074080;28;20642;-78
2021/08/27 07:58:18;;;;;;;1.77;1.60;;;16.30;84.20;;;16.15;68.63;94557.78;5054986;28;20277;-77
2021/08/27 08:00:45;;;;;;;2.33;1.77;;;16.40;84.00;;;16.15;68.41;94555.13;5056480;28;20301;-78
2021/08/27 08:03:13;;;;;;;1.90;1.80;;;16.40;83.90;;;16.15;68.71;94550.63;5056856;28;20203;-78
2021/08/27 08:05:47;;;;;;;3.10;1.80;;;16.40;83.90;;;16.20;68.90;94557.88;5040022;28;20271;-78
2021/08/27 08:08:17;;;;;;;3.15;1.90;;;16.40;84.00;;;16.25;68.55;94557.97;5053507;28;20225;-79
2021/08/27 08:10:45;;;;;;;2.00;1.60;;;16.40;84.00;;;16.28;68.89;94562.78;5037046;28;20221;-77
2021/08/27 08:13:12;;;;;;;3.58;1.80;;;16.40;84.10;;;16.29;68.70;94559.09;5038632;28;20676;-78
2021/08/27 08:15:39;;;;;;;2.53;1.90;;;16.50;84.20;;;16.32;68.96;94558.63;5055642;28;20209;-77
2021/08/27 08:18:07;;;;;;;1.70;1.60;;;16.50;84.10;;;16.39;68.87;94569.06;5071519;28;20309;-77
2021/08/27 08:20:34;;;;;;;1.80;1.70;;;16.50;84.00;;;16.41;68.78;94568.84;5072010;28;20211;-78
2021/08/27 08:23:02;;;;;;;2.88;1.70;;;16.50;84.00;;;16.45;68.34;94554.91;5054101;28;20222;-79
2021/08/27 08:25:29;;;;;;;2.10;1.80;;;16.60;83.90;;;16.48;68.65;94569.50;5051877;28;20741;-78
2021/08/27 08:27:56;;;;;;;1.75;1.60;;;16.60;83.90;;;16.47;68.42;94562.59;5054320;28;20230;-80
2021/08/27 08:30:23;;;;;;;2.15;1.95;;;16.60;83.60;;;16.44;67.68;94557.75;5053993;28;20552;-79
2021/08/27 08:32:50;;;;;;;1.95;1.80;;;16.70;83.50;;;16.44;67.98;94571.81;5037467;28;20667;-78
2021/08/27 08:35:18;;;;;;;1.50;1.40;;;16.70;83.50;;;16.46;68.38;94579.50;5055271;28;20616;-78
2021/08/27 08:37:45;;;;;;;2.95;1.85;;;16.70;83.80;;;16.45;68.27;94564.66;5071771;28;20198;-79
2021/08/27 08:40:14;;;;;;;2.08;1.80;;;16.70;83.50;;;16.50;68.48;94570.06;5036593;28;20213;-79
2021/08/27 08:42:42;;;;;;;3.22;1.63;;;16.60;83.60;;;16.54;68.54;94575.69;5054993;28;20199;-79
2021/08/27 08:45:10;;;;;;;2.17;1.90;;;16.70;83.70;;;16.52;68.27;94573.28;5055044;28;20305;-79
2021/08/27 08:47:42;;;;;;;5.15;2.13;;;16.70;83.50;;;16.49;68.12;94557.88;5071429;28;20195;-80
2021/08/27 08:50:11;;;;;;;2.50;1.88;;;16.70;83.50;;;16.56;68.09;94584.97;5071328;28;20241;-79
2021/08/27 08:52:41;;;;;;;3.53;1.98;;;16.70;83.50;;;16.48;68.07;94557.06;5053455;28;20270;-80
2021/08/27 08:55:10;;;;;;;1.95;1.70;;;16.70;83.00;;;16.56;68.46;94586.84;5053537;28;20257;-80
2021/08/27 08:57:37;;;;;;;1.88;1.73;;;16.80;83.30;;;16.54;68.06;94581.78;5053166;28;20277;-79
2021/08/27 09:00:06;;;;;;;2.65;2.00;;;16.70;83.10;;;16.44;67.77;94579.75;5053106;28;20252;-79
2021/08/27 09:02:33;;;;;;;3.05;2.10;;;16.70;83.00;;;16.48;68.11;94593.31;5052995;28;20281;-80
2021/08/27 09:05:00;;;;;;;3.42;1.90;;;16.70;83.20;;;16.47;67.65;94591.72;5069677;28;20262;-79
2021/08/27 09:07:28;;;;;;;3.63;2.13;;;16.70;83.00;;;16.48;68.04;94588.03;5053882;28;20680;-79
2021/08/27 09:09:57;;;;;;;4.18;2.00;;;16.80;83.00;;;16.44;68.07;94586.88;5053499;28;20265;-80
2021/08/27 09:12:28;;;;;;;1.83;1.73;;;16.80;83.00;;;16.45;68.07;94602.56;5053746;28;20297;-80
2021/08/27 09:14:59;;;;;;;3.47;2.35;;;16.80;82.90;;;16.44;67.52;94593.00;5037023;28;20214;-80
2021/08/27 09:17:40;;;;;;;2.47;2.13;;;16.70;83.00;;;16.45;67.64;94596.44;5053750;28;20212;-79
2021/08/27 09:20:17;;;;;;;2.38;1.88;;;16.70;82.80;;;16.52;68.22;94594.44;5053170;28;20323;-80
2021/08/27 09:22:55;;;;;;;2.42;1.98;;;16.70;83.20;;;16.59;68.21;94599.63;5070777;28;20202;-80
2021/08/27 09:25:31;;;;;;;2.15;1.83;;;16.70;82.70;;;16.61;67.84;94598.34;5054535;28;20671;-80
2021/08/27 09:28:12;;;;;;;3.42;1.63;;;16.70;82.50;;;16.53;67.43;94572.25;5053494;28;20201;-80
2021/08/27 09:31:00;;;;;;;2.33;1.80;;;16.80;82.80;;;16.64;67.23;94597.06;5069222;28;20215;-79
2021/08/27 09:33:35;;;;;;;2.00;1.77;;;16.80;82.70;;;16.58;67.39;94590.84;5067486;28;20657;-80
2021/08/27 09:36:07;;;;;;;2.08;1.88;;;16.80;82.50;;;16.60;67.33;94599.38;5054306;28;20222;-79
2021/08/27 09:38:40;;;;;;;2.20;1.70;;;16.70;82.30;;;16.66;67.55;94592.31;5068279;28;20211;-78
2021/08/27 09:41:13;;;;;;;2.00;1.80;;;16.80;83.40;;;16.70;67.89;94601.41;5070372;28;20222;-79
2021/08/27 09:43:51;;;;;;;2.70;2.00;;;16.80;83.00;;;16.74;67.56;94593.78;5053797;28;20229;-79
2021/08/27 09:46:42;;;;;;;2.47;2.10;;;16.80;82.70;;;16.81;68.14;94594.44;5068917;28;20214;-79
2021/08/27 09:49:35;;;;;;;1.73;1.63;;;16.90;83.00;;;17.00;68.58;94587.09;5044233;28;20506;-79
2021/08/27 09:52:05;;;;;;;2.35;1.77;;;16.90;83.20;;;17.24;68.47;94585.09;5068462;28;20187;-79
2021/08/27 09:54:35;;;;;;;2.28;1.80;;;17.10;84.10;;;17.47;68.60;94591.28;5051775;28;20187;-79
2021/08/27 09:57:08;;;;;;;2.63;1.88;;;17.20;84.50;;;17.68;67.89;94583.59;5035545;28;20202;-79
2021/08/27 09:59:47;;;;;;;2.20;2.00;;;17.30;84.20;;;17.93;67.64;94593.75;5086952;28;20285;-80
2021/08/27 10:02:16;;;;;;;1.98;1.77;;;17.60;83.70;;;18.05;67.74;94589.16;5052963;28;20209;-79
2021/08/27 10:04:59;;;;;;;1.67;1.58;;;17.70;84.10;;;18.20;67.26;94582.41;5053739;28;20241;-79
2021/08/27 10:07:37;;;;;;;2.08;1.70;;;17.80;83.70;;;18.39;67.29;94585.56;5054604;28;20538;-79
2021/08/27 10:10:08;;;;;;;1.92;1.73;;;18.10;83.20;;;18.55;67.12;94590.00;5054884;28;20222;-80
2021/08/27 10:12:38;;;;;;;2.60;2.00;;;18.10;83.60;;;18.60;65.74;94577.81;5052764;28;20664;-80
2021/08/27 10:15:09;;;;;;;1.98;1.75;;;18.40;82.90;;;18.60;65.29;94575.16;5051706;28;20260;-79
2021/08/27 10:17:38;;;;;;;2.08;1.88;;;18.40;82.20;;;18.76;65.88;94576.94;5047952;28;20202;-80
2021/08/27 10:20:08;;;;;;;1.95;1.73;;;18.50;82.20;;;18.73;65.59;94570.22;5051952;28;20309;-80
2021/08/27 10:22:41;;;;;;;2.10;1.88;;;18.60;81.80;;;18.72;65.55;94559.88;5053418;28;20331;-80
2021/08/27 10:25:11;;;;;;;1.95;1.70;;;18.70;81.80;;;18.85;65.62;94578.06;5037434;28;20264;-80
2021/08/27 10:27:40;;;;;;;2.05;1.85;;;18.70;81.50;;;18.94;65.91;94573.09;5053621;28;20734;-80
2021/08/27 10:30:08;;;;;;;1.80;1.70;;;18.80;82.00;;;19.02;65.33;94566.53;5037095;28;20230;-80
2021/08/27 10:32:38;;;;;;;2.53;1.92;;;18.80;81.80;;;19.09;65.61;94571.63;5053666;28;20628;-80
2021/08/27 10:35:30;;;;;;;2.63;1.83;;;19.00;81.80;;;19.13;64.91;94562.13;5070047;28;20223;-80